Time;durP1;ratioP1;P1;durP2;ratioP2;P2;SDS_P1;SDS_P2;PMS_P1;PMS_P2;Temp;Humidity;BMP_temperature;BMP_pressure;BME280_temperature;BME280_humidity;BME280_pressure;Samples;Min_cycle;Max_cycle;Signal;HPM_P1;HPM_P2
2023/06/04 00:00:11;;;;;;;3.22;0.50;;;;;;;;;;6306664;22;20106;-85
2023/06/04 00:02:38;;;;;;;2.00;0.47;;;;;;;;;;6280899;22;20057;-85
2023/06/04 00:05:04;;;;;;;2.17;0.40;;;;;;;;;;6282003;22;20011;-85
2023/06/04 00:07:30;;;;;;;2.03;0.50;;;;;;;;;;6281155;22;20015;-85
2023/06/04 00:09:56;;;;;;;1.30;0.40;;;;;;;;;;6281138;22;20019;-85
2023/06/04 00:12:22;;;;;;;3.15;0.47;;;;;;;;;;6306628;22;20319;-85
2023/06/04 00:14:48;;;;;;;1.10;0.40;;;;;;;;;;6281878;22;20064;-85
2023/06/04 00:17:14;;;;;;;1.45;0.40;;;;;;;;;;6280598;22;20012;-85
2023/06/04 00:19:40;;;;;;;2.08;0.40;;;;;;;;;;6281784;22;20026;-85
2023/06/04 00:22:07;;;;;;;1.13;0.73;;;;;;;;;;6280773;22;20394;-85
2023/06/04 00:24:33;;;;;;;1.50;0.50;;;;;;;;;;6279974;22;20413;-85
2023/06/04 00:26:59;;;;;;;1.33;0.40;;;;;;;;;;6307462;22;20019;-85
2023/06/04 00:29:25;;;;;;;2.75;0.75;;;;;;;;;;6306797;22;20445;-85
2023/06/04 00:31:51;;;;;;;2.17;0.50;;;;;;;;;;6281047;22;20020;-85
2023/06/04 00:34:18;;;;;;;2.45;0.50;;;;;;;;;;6280995;22;20457;-85
2023/06/04 00:36:44;;;;;;;1.17;0.50;;;;;;;;;;6281707;22;20094;-85
2023/06/04 00:39:11;;;;;;;1.35;0.57;;;;;;;;;;6307478;22;20012;-85
2023/06/04 00:41:37;;;;;;;1.20;0.43;;;;;;;;;;6280628;22;20329;-85
2023/06/04 00:44:06;;;;;;;2.60;0.80;;;;;;;;;;6280684;22;20023;-85
2023/06/04 00:46:32;;;;;;;3.38;0.60;;;;;;;;;;6281245;22;20022;-85
2023/06/04 00:48:59;;;;;;;2.75;0.80;;;;;;;;;;6306264;22;20015;-85
2023/06/04 00:51:25;;;;;;;2.17;1.00;;;;;;;;;;6306388;22;20475;-85
2023/06/04 00:53:52;;;;;;;4.60;0.77;;;;;;;;;;6306047;22;20023;-85
2023/06/04 00:56:18;;;;;;;1.40;0.60;;;;;;;;;;6280703;22;20342;-85
2023/06/04 00:58:46;;;;;;;1.85;0.73;;;;;;;;;;6280523;22;20015;-88
2023/06/04 01:01:27;;;;;;;1.52;0.95;;;;;;;;;;6280674;22;20102;-87
2023/06/04 01:03:55;;;;;;;3.10;0.85;;;;;;;;;;6280607;22;20430;-87
2023/06/04 01:06:29;;;;;;;1.58;0.80;;;;;;;;;;6305991;22;20021;-87
2023/06/04 01:08:57;;;;;;;2.58;0.93;;;;;;;;;;6280419;22;20026;-87
2023/06/04 01:11:36;;;;;;;2.28;0.90;;;;;;;;;;6306958;22;20065;-87
2023/06/04 01:14:03;;;;;;;2.22;0.85;;;;;;;;;;6281363;22;20376;-87
2023/06/04 01:16:33;;;;;;;2.83;1.08;;;;;;;;;;6283784;22;20041;-87
2023/06/04 01:19:00;;;;;;;1.40;1.20;;;;;;;;;;6283380;22;20026;-88
2023/06/04 01:21:29;;;;;;;2.28;0.98;;;;;;;;;;6282421;22;20341;-87
2023/06/04 01:23:59;;;;;;;2.75;1.13;;;;;;;;;;6282400;22;20027;-87
2023/06/04 01:26:26;;;;;;;3.90;1.67;;;;;;;;;;6282717;22;20015;-87
2023/06/04 01:28:57;;;;;;;3.38;1.33;;;;;;;;;;6282787;22;20019;-87
2023/06/04 01:31:24;;;;;;;2.35;1.50;;;;;;;;;;6308229;22;20015;-87
2023/06/04 01:33:54;;;;;;;3.05;1.50;;;;;;;;;;6282378;22;20042;-87
2023/06/04 01:36:23;;;;;;;1.20;0.93;;;;;;;;;;6308287;22;20011;-87
2023/06/04 01:38:49;;;;;;;2.85;1.20;;;;;;;;;;6308106;22;20042;-87
2023/06/04 01:41:17;;;;;;;3.10;1.70;;;;;;;;;;6283143;22;20328;-87
2023/06/04 01:43:43;;;;;;;2.95;1.20;;;;;;;;;;6308698;22;20047;-87
2023/06/04 01:46:10;;;;;;;2.40;1.60;;;;;;;;;;6308228;22;20061;-87
2023/06/04 01:48:36;;;;;;;3.38;1.67;;;;;;;;;;6282748;22;20015;-86
2023/06/04 01:51:02;;;;;;;2.58;1.55;;;;;;;;;;6308218;22;20376;-87
2023/06/04 01:53:29;;;;;;;2.72;1.38;;;;;;;;;;6308103;22;20015;-86
2023/06/04 01:55:57;;;;;;;4.90;1.75;;;;;;;;;;6308118;22;20018;-87
2023/06/04 01:58:28;;;;;;;3.33;1.60;;;;;;;;;;6308497;22;20018;-87
2023/06/04 02:00:55;;;;;;;2.90;1.85;;;;;;;;;;6308243;22;20499;-87
2023/06/04 02:03:22;;;;;;;3.13;1.60;;;;;;;;;;6282027;22;20023;-87
2023/06/04 02:05:51;;;;;;;3.53;1.80;;;;;;;;;;6281676;22;20042;-87
2023/06/04 02:08:18;;;;;;;3.60;1.88;;;;;;;;;;6307761;22;20015;-87
2023/06/04 02:10:46;;;;;;;4.00;2.10;;;;;;;;;;6307765;22;20064;-87
2023/06/04 02:13:12;;;;;;;5.97;2.15;;;;;;;;;;6282105;22;20038;-87
2023/06/04 02:15:39;;;;;;;4.88;2.08;;;;;;;;;;6281980;22;20026;-88
2023/06/04 02:18:15;;;;;;;4.20;1.95;;;;;;;;;;6282245;22;20019;-87
2023/06/04 02:20:42;;;;;;;3.17;1.70;;;;;;;;;;6283175;22;20019;-87
2023/06/04 02:23:08;;;;;;;4.70;1.80;;;;;;;;;;6307699;22;20371;-87
2023/06/04 02:25:35;;;;;;;3.15;1.75;;;;;;;;;;6281860;22;20011;-87
2023/06/04 02:28:01;;;;;;;5.60;2.08;;;;;;;;;;6281958;22;20170;-87
2023/06/04 02:30:27;;;;;;;3.88;1.85;;;;;;;;;;6281669;22;20015;-87
2023/06/04 02:32:54;;;;;;;5.20;2.45;;;;;;;;;;6307621;22;20376;-87
2023/06/04 02:35:23;;;;;;;2.63;1.65;;;;;;;;;;6281712;22;20053;-86
2023/06/04 02:37:50;;;;;;;6.43;2.20;;;;;;;;;;6307336;22;20026;-86
2023/06/04 02:40:17;;;;;;;3.47;1.67;;;;;;;;;;6281670;22;20027;-87
2023/06/04 02:42:43;;;;;;;5.40;1.88;;;;;;;;;;6281851;22;20080;-87
2023/06/04 02:45:10;;;;;;;2.75;2.00;;;;;;;;;;6281626;22;20065;-87
2023/06/04 02:47:36;;;;;;;4.63;2.53;;;;;;;;;;6307438;22;20016;-87
2023/06/04 02:50:03;;;;;;;4.85;2.42;;;;;;;;;;6281525;22;20019;-86
2023/06/04 02:52:32;;;;;;;7.07;3.00;;;;;;;;;;6307507;22;20011;-87
2023/06/04 02:54:59;;;;;;;5.25;2.00;;;;;;;;;;6307119;22;20019;-87
2023/06/04 02:57:25;;;;;;;4.45;2.47;;;;;;;;;;6281858;22;20519;-87
2023/06/04 02:59:52;;;;;;;5.05;1.98;;;;;;;;;;6308248;22;20429;-87
2023/06/04 03:02:18;;;;;;;5.22;2.13;;;;;;;;;;6281482;22;20019;-87
2023/06/04 03:04:44;;;;;;;6.78;2.45;;;;;;;;;;6282583;22;20011;-87
2023/06/04 03:07:13;;;;;;;5.97;2.28;;;;;;;;;;6281717;22;20034;-86
2023/06/04 03:09:39;;;;;;;5.38;2.00;;;;;;;;;;6281375;22;20106;-87
2023/06/04 03:12:05;;;;;;;8.95;2.13;;;;;;;;;;6281242;22;20072;-87
2023/06/04 03:14:32;;;;;;;3.63;2.10;;;;;;;;;;6307284;22;20023;-86
2023/06/04 03:17:18;;;;;;;7.03;2.30;;;;;;;;;;6308374;22;20053;-87
2023/06/04 03:19:44;;;;;;;4.30;2.15;;;;;;;;;;6282352;22;20098;-87
2023/06/04 03:22:10;;;;;;;8.45;2.40;;;;;;;;;;6281463;22;20023;-87
2023/06/04 03:24:40;;;;;;;5.25;2.17;;;;;;;;;;6281161;22;20058;-87
2023/06/04 03:27:07;;;;;;;4.07;2.63;;;;;;;;;;6307105;22;20022;-87
2023/06/04 03:29:38;;;;;;;4.32;2.15;;;;;;;;;;6280969;22;20053;-87
2023/06/04 03:32:12;;;;;;;4.53;2.05;;;;;;;;;;6281418;22;20020;-87
2023/06/04 03:34:38;;;;;;;3.95;2.10;;;;;;;;;;6282265;22;20072;-87
2023/06/04 03:37:05;;;;;;;4.55;2.50;;;;;;;;;;6280998;22;20084;-87
2023/06/04 03:39:31;;;;;;;4.82;2.67;;;;;;;;;;6307908;22;20070;-87
2023/06/04 03:41:57;;;;;;;3.60;1.90;;;;;;;;;;6282253;22;20325;-87
2023/06/04 03:44:23;;;;;;;6.18;2.60;;;;;;;;;;6308104;22;20346;-87
2023/06/04 03:46:49;;;;;;;7.05;2.80;;;;;;;;;;6281775;22;20437;-87
2023/06/04 03:49:17;;;;;;;4.93;2.13;;;;;;;;;;6306921;22;20019;-87
2023/06/04 03:51:43;;;;;;;4.25;2.30;;;;;;;;;;6281371;22;20023;-88
2023/06/04 03:54:12;;;;;;;6.45;2.22;;;;;;;;;;6281210;22;20018;-88
2023/06/04 03:56:38;;;;;;;3.70;2.55;;;;;;;;;;6281063;22;20019;-88
2023/06/04 03:59:04;;;;;;;4.68;2.50;;;;;;;;;;6307187;22;20047;-89
2023/06/04 04:01:30;;;;;;;5.05;2.47;;;;;;;;;;6281237;22;20027;-88
2023/06/04 04:03:58;;;;;;;6.93;2.97;;;;;;;;;;6280881;22;20104;-88
2023/06/04 04:06:24;;;;;;;5.85;3.22;;;;;;;;;;6307092;22;20318;-88
2023/06/04 04:08:50;;;;;;;4.38;2.35;;;;;;;;;;6307213;22;20329;-88
2023/06/04 04:11:17;;;;;;;3.88;2.15;;;;;;;;;;6281026;22;20015;-87
2023/06/04 04:13:44;;;;;;;5.15;2.85;;;;;;;;;;6281228;22;20022;-88
2023/06/04 04:16:11;;;;;;;9.32;3.75;;;;;;;;;;6281004;22;20027;-88
2023/06/04 04:18:37;;;;;;;4.57;2.55;;;;;;;;;;6280959;22;20019;-88
2023/06/04 04:21:04;;;;;;;4.40;2.78;;;;;;;;;;6308004;22;20015;-88
2023/06/04 04:23:31;;;;;;;6.90;2.83;;;;;;;;;;6281341;22;20019;-88
2023/06/04 04:25:58;;;;;;;7.90;2.88;;;;;;;;;;6306682;22;20019;-88
2023/06/04 04:28:28;;;;;;;5.28;2.92;;;;;;;;;;6283536;22;20043;-87
2023/06/04 04:30:54;;;;;;;7.00;3.22;;;;;;;;;;6281733;22;20441;-89
2023/06/04 04:33:20;;;;;;;10.32;4.60;;;;;;;;;;6281251;22;20030;-88
2023/06/04 04:35:48;;;;;;;9.45;4.00;;;;;;;;;;6281057;22;20015;-89
2023/06/04 04:38:19;;;;;;;8.73;4.13;;;;;;;;;;6307047;22;20015;-89
2023/06/04 04:40:47;;;;;;;6.45;3.92;;;;;;;;;;6282242;22;20016;-89
2023/06/04 04:43:14;;;;;;;5.22;3.05;;;;;;;;;;6282311;22;20011;-89
2023/06/04 04:45:40;;;;;;;6.07;3.88;;;;;;;;;;6307175;22;20026;-88
2023/06/04 04:48:06;;;;;;;6.90;4.07;;;;;;;;;;6282477;22;20076;-89
2023/06/04 04:50:32;;;;;;;8.27;4.80;;;;;;;;;;6282755;22;20019;-89
2023/06/04 04:52:59;;;;;;;6.28;4.15;;;;;;;;;;6284084;22;20015;-89
2023/06/04 04:55:27;;;;;;;7.10;4.18;;;;;;;;;;6309802;22;20072;-90
2023/06/04 04:57:53;;;;;;;7.53;4.35;;;;;;;;;;6282770;22;20019;-89
2023/06/04 05:00:20;;;;;;;7.72;5.60;;;;;;;;;;6283039;22;20015;-89
2023/06/04 05:02:46;;;;;;;9.52;5.07;;;;;;;;;;6309506;22;20016;-89
2023/06/04 05:05:12;;;;;;;7.78;4.93;;;;;;;;;;6283091;22;20015;-90
2023/06/04 05:07:38;;;;;;;12.13;5.20;;;;;;;;;;6283257;22;20072;-90
2023/06/04 05:10:04;;;;;;;7.60;5.32;;;;;;;;;;6308376;22;20384;-90
2023/06/04 05:12:31;;;;;;;9.52;5.38;;;;;;;;;;6282995;22;20019;-89
2023/06/04 05:14:58;;;;;;;10.68;4.85;;;;;;;;;;6282845;22;20461;-90
2023/06/04 05:17:29;;;;;;;10.30;4.82;;;;;;;;;;6308652;22;20015;-90
2023/06/04 05:20:11;;;;;;;7.75;4.68;;;;;;;;;;6284532;22;20015;-89
2023/06/04 05:22:37;;;;;;;8.68;5.03;;;;;;;;;;6308832;22;20068;-90
2023/06/04 05:25:04;;;;;;;7.72;5.00;;;;;;;;;;6283645;22;20165;-90
2023/06/04 05:27:31;;;;;;;11.02;5.50;;;;;;;;;;6285038;22;20372;-90
2023/06/04 05:29:58;;;;;;;7.43;4.40;;;;;;;;;;6285694;22;20023;-90
2023/06/04 05:32:28;;;;;;;8.52;5.45;;;;;;;;;;6289804;22;20019;-89
2023/06/04 05:34:56;;;;;;;11.63;4.70;;;;;;;;;;6335271;22;20027;-90
2023/06/04 05:37:23;;;;;;;9.38;5.78;;;;;;;;;;6308395;22;20023;-90
2023/06/04 05:39:50;;;;;;;9.65;5.82;;;;;;;;;;6287427;22;20437;-91
2023/06/04 05:42:16;;;;;;;7.00;5.22;;;;;;;;;;6284307;22;20022;-90
2023/06/04 05:44:42;;;;;;;9.88;4.55;;;;;;;;;;6283159;22;20015;-90
2023/06/04 05:47:08;;;;;;;5.93;4.05;;;;;;;;;;6284234;22;20011;-92
2023/06/04 05:49:34;;;;;;;10.18;4.05;;;;;;;;;;6283387;22;20016;-91
2023/06/04 05:52:01;;;;;;;10.95;4.20;;;;;;;;;;6310688;22;20429;-90
2023/06/04 05:54:27;;;;;;;5.40;3.92;;;;;;;;;;6283248;22;20366;-91
2023/06/04 05:56:53;;;;;;;5.88;4.03;;;;;;;;;;6308747;22;20480;-89
2023/06/04 05:59:20;;;;;;;6.13;4.18;;;;;;;;;;6284022;22;20019;-91
2023/06/04 06:01:47;;;;;;;7.22;3.97;;;;;;;;;;6283670;22;20065;-90
2023/06/04 06:04:13;;;;;;;6.63;3.45;;;;;;;;;;6283210;22;20070;-91
2023/06/04 06:06:43;;;;;;;7.65;3.97;;;;;;;;;;6284045;22;20019;-90
2023/06/04 06:09:10;;;;;;;7.90;3.90;;;;;;;;;;6282582;22;20023;-91
2023/06/04 06:11:38;;;;;;;11.40;3.83;;;;;;;;;;6308428;22;20065;-90
2023/06/04 06:14:05;;;;;;;8.05;4.05;;;;;;;;;;6282371;22;20018;-90
2023/06/04 06:16:32;;;;;;;8.82;4.57;;;;;;;;;;6283326;22;20026;-90
2023/06/04 06:18:58;;;;;;;4.28;3.47;;;;;;;;;;6308871;22;20017;-91
2023/06/04 06:21:25;;;;;;;7.88;3.55;;;;;;;;;;6282793;22;20100;-90
2023/06/04 06:23:52;;;;;;;9.55;4.25;;;;;;;;;;6307795;22;20019;-90
2023/06/04 06:26:21;;;;;;;8.65;4.10;;;;;;;;;;6283083;22;20073;-89
2023/06/04 06:28:48;;;;;;;8.48;4.60;;;;;;;;;;6282039;22;20094;-91
2023/06/04 06:31:14;;;;;;;7.97;4.05;;;;;;;;;;6282355;22;20019;-90
2023/06/04 06:33:45;;;;;;;5.85;3.92;;;;;;;;;;6282702;22;20023;-91
2023/06/04 06:36:12;;;;;;;7.45;3.75;;;;;;;;;;6282172;22;20030;-91
2023/06/04 06:38:40;;;;;;;7.40;3.55;;;;;;;;;;6283551;22;20442;-91
2023/06/04 06:41:07;;;;;;;6.60;3.60;;;;;;;;;;6284112;22;20015;-91
2023/06/04 06:43:33;;;;;;;4.55;2.47;;;;;;;;;;6282578;22;20021;-93
2023/06/04 06:45:59;;;;;;;5.38;3.15;;;;;;;;;;6282657;22;20021;-93
2023/06/04 06:48:25;;;;;;;5.25;1.75;;;;;;;;;;6307961;22;20015;-90
2023/06/04 06:50:51;;;;;;;6.00;1.95;;;;;;;;;;6308256;22;20019;-92
2023/06/04 06:53:17;;;;;;;4.82;1.45;;;;;;;;;;6282313;22;20022;-92
2023/06/04 06:55:43;;;;;;;4.85;1.90;;;;;;;;;;6282440;22;20093;-93
2023/06/04 06:58:10;;;;;;;4.28;1.52;;;;;;;;;;6281813;22;20464;-90
2023/06/04 07:00:38;;;;;;;2.45;1.17;;;;;;;;;;6307544;22;20016;-91
2023/06/04 07:03:08;;;;;;;2.75;1.60;;;;;;;;;;6281922;22;20099;-91
2023/06/04 07:05:34;;;;;;;2.65;0.60;;;;;;;;;;6281954;22;20011;-91
2023/06/04 07:08:01;;;;;;;6.78;0.85;;;;;;;;;;6282319;22;20333;-91
2023/06/04 07:10:30;;;;;;;3.95;0.70;;;;;;;;;;6283639;22;20015;-91
2023/06/04 07:12:57;;;;;;;3.90;0.98;;;;;;;;;;6281829;22;20026;-91
2023/06/04 07:15:23;;;;;;;4.20;0.80;;;;;;;;;;6313950;22;20445;-90
2023/06/04 07:17:49;;;;;;;2.97;0.88;;;;;;;;;;6283559;22;20019;-90
2023/06/04 07:20:18;;;;;;;3.22;1.17;;;;;;;;;;6282177;22;20019;-92
2023/06/04 07:22:45;;;;;;;3.33;1.30;;;;;;;;;;6283720;22;20104;-90
2023/06/04 07:25:11;;;;;;;4.03;1.00;;;;;;;;;;6308513;22;20030;-92
2023/06/04 07:27:40;;;;;;;4.32;1.27;;;;;;;;;;6308735;22;20090;-92
2023/06/04 07:30:07;;;;;;;4.78;1.20;;;;;;;;;;6307654;22;20034;-91
2023/06/04 07:32:36;;;;;;;3.55;0.90;;;;;;;;;;6307507;22;20011;-91
2023/06/04 07:35:03;;;;;;;3.08;1.13;;;;;;;;;;6281479;22;20015;-92
2023/06/04 07:37:29;;;;;;;2.40;0.90;;;;;;;;;;6282375;22;20051;-91
2023/06/04 07:39:55;;;;;;;2.65;0.60;;;;;;;;;;6281342;22;20026;-92
2023/06/04 07:42:22;;;;;;;3.95;0.70;;;;;;;;;;6281598;22;20461;-91
2023/06/04 07:44:48;;;;;;;1.95;0.55;;;;;;;;;;6307200;22;20022;-92
2023/06/04 07:47:14;;;;;;;2.75;0.60;;;;;;;;;;6282005;22;20058;-90
2023/06/04 07:49:40;;;;;;;3.13;0.57;;;;;;;;;;6282259;22;20019;-89
2023/06/04 07:52:07;;;;;;;3.03;0.70;;;;;;;;;;6281590;22;20311;-92
2023/06/04 07:54:33;;;;;;;3.67;0.65;;;;;;;;;;6281291;22;20011;-91
2023/06/04 07:56:59;;;;;;;4.22;0.70;;;;;;;;;;6307251;22;20089;-91
2023/06/04 07:59:25;;;;;;;1.98;0.63;;;;;;;;;;6281483;22;20019;-92
2023/06/04 08:01:52;;;;;;;2.63;0.50;;;;;;;;;;6307302;22;20023;-91
2023/06/04 08:04:18;;;;;;;1.75;0.50;;;;;;;;;;6281469;22;20069;-92
2023/06/04 08:06:44;;;;;;;3.95;0.68;;;;;;;;;;6308115;22;20018;-92
2023/06/04 08:09:11;;;;;;;4.07;0.77;;;;;;;;;;6281787;22;20019;-93
2023/06/04 08:11:40;;;;;;;2.70;0.70;;;;;;;;;;6282007;22;20019;-91
2023/06/04 08:14:06;;;;;;;3.28;0.50;;;;;;;;;;6306732;22;20019;-92
2023/06/04 08:16:32;;;;;;;4.75;0.63;;;;;;;;;;6307820;22;20012;-91
2023/06/04 08:18:58;;;;;;;2.35;0.68;;;;;;;;;;6308019;22;20011;-91
2023/06/04 08:21:28;;;;;;;3.95;0.70;;;;;;;;;;6282097;22;20015;-92
2023/06/04 08:23:56;;;;;;;1.65;0.40;;;;;;;;;;6307856;22;20019;-91
2023/06/04 08:26:32;;;;;;;2.58;0.50;;;;;;;;;;6283515;22;20345;-92
2023/06/04 08:28:59;;;;;;;3.85;0.60;;;;;;;;;;6309836;22;20043;-90
2023/06/04 08:31:27;;;;;;;3.63;0.50;;;;;;;;;;6283198;22;20015;-90
2023/06/04 08:33:53;;;;;;;1.45;0.30;;;;;;;;;;6282951;22;20068;-91
2023/06/04 08:36:22;;;;;;;2.60;0.38;;;;;;;;;;6283764;22;20019;-92
2023/06/04 08:38:50;;;;;;;2.03;0.30;;;;;;;;;;6284119;22;20019;-90
2023/06/04 08:41:21;;;;;;;1.67;0.30;;;;;;;;;;6283460;22;20015;-90
2023/06/04 08:43:49;;;;;;;2.47;0.38;;;;;;;;;;6309803;22;20015;-91
2023/06/04 08:46:16;;;;;;;1.40;0.30;;;;;;;;;;6284382;22;20073;-90
2023/06/04 08:48:43;;;;;;;2.53;0.30;;;;;;;;;;6282968;22;20026;-92
2023/06/04 08:51:10;;;;;;;2.25;0.40;;;;;;;;;;6283408;22;20021;-90
2023/06/04 08:53:39;;;;;;;1.20;0.30;;;;;;;;;;6309816;22;20022;-89
2023/06/04 08:56:05;;;;;;;2.58;0.38;;;;;;;;;;6283874;22;20015;-89
2023/06/04 08:58:38;;;;;;;2.05;0.28;;;;;;;;;;6282956;22;20024;-88
2023/06/04 09:01:04;;;;;;;2.45;0.38;;;;;;;;;;6282808;22;20054;-89
2023/06/04 09:03:32;;;;;;;1.52;0.28;;;;;;;;;;6282554;22;20104;-89
2023/06/04 09:06:01;;;;;;;1.98;0.38;;;;;;;;;;6308588;22;20073;-89
2023/06/04 09:08:31;;;;;;;2.78;0.20;;;;;;;;;;6309445;22;20034;-88
2023/06/04 09:10:58;;;;;;;1.33;0.30;;;;;;;;;;6309102;22;20051;-88
2023/06/04 09:13:28;;;;;;;1.40;0.20;;;;;;;;;;6282701;22;20050;-86
2023/06/04 09:16:04;;;;;;;1.98;0.30;;;;;;;;;;6308452;22;20016;-88
2023/06/04 09:18:31;;;;;;;2.40;0.30;;;;;;;;;;6282739;22;20022;-88
2023/06/04 09:21:08;;;;;;;3.47;0.30;;;;;;;;;;6309079;22;20521;-88
2023/06/04 09:23:47;;;;;;;4.07;0.47;;;;;;;;;;6283349;22;21916;-88
2023/06/04 09:26:13;;;;;;;1.70;0.30;;;;;;;;;;6282666;22;20019;-88
2023/06/04 09:28:43;;;;;;;3.08;0.45;;;;;;;;;;6282551;22;20026;-90
2023/06/04 09:31:14;;;;;;;2.78;0.40;;;;;;;;;;6308510;22;20019;-87
2023/06/04 09:33:44;;;;;;;2.75;0.30;;;;;;;;;;6282786;22;20026;-88
2023/06/04 09:36:10;;;;;;;1.77;0.35;;;;;;;;;;6282371;22;20106;-88
2023/06/04 09:38:39;;;;;;;4.00;0.30;;;;;;;;;;6309104;22;20460;-88
2023/06/04 09:41:11;;;;;;;1.60;0.32;;;;;;;;;;6282595;22;20021;-88
2023/06/04 09:43:37;;;;;;;0.90;0.20;;;;;;;;;;6308679;22;20022;-89
2023/06/04 09:46:13;;;;;;;2.58;0.75;;;;;;;;;;6283243;22;20061;-88
2023/06/04 09:48:42;;;;;;;3.63;0.38;;;;;;;;;;6283538;22;20026;-88
2023/06/04 09:51:15;;;;;;;2.33;0.30;;;;;;;;;;6282422;22;20019;-89
2023/06/04 09:53:53;;;;;;;1.20;0.20;;;;;;;;;;6282028;22;20064;-89
2023/06/04 09:56:19;;;;;;;1.80;0.30;;;;;;;;;;6309192;22;20015;-91
2023/06/04 09:58:47;;;;;;;1.73;0.30;;;;;;;;;;6286838;22;20384;-89
2023/06/04 10:01:14;;;;;;;3.50;0.30;;;;;;;;;;6310837;22;20065;-88
2023/06/04 10:03:41;;;;;;;2.88;0.45;;;;;;;;;;6310029;22;20098;-88
2023/06/04 10:06:08;;;;;;;1.38;0.25;;;;;;;;;;6308442;22;20460;-89
2023/06/04 10:08:34;;;;;;;1.77;0.30;;;;;;;;;;6307991;22;20090;-88
2023/06/04 10:11:01;;;;;;;2.65;0.30;;;;;;;;;;6282350;22;20057;-88
2023/06/04 10:13:28;;;;;;;2.05;0.30;;;;;;;;;;6282013;22;20011;-89
2023/06/04 10:15:57;;;;;;;2.22;0.30;;;;;;;;;;6282108;22;20345;-89
2023/06/04 10:18:27;;;;;;;1.08;0.38;;;;;;;;;;6281375;22;20441;-88
2023/06/04 10:20:55;;;;;;;1.52;0.30;;;;;;;;;;6283436;22;20026;-88
2023/06/04 10:23:23;;;;;;;1.17;0.30;;;;;;;;;;6307496;22;20038;-88
2023/06/04 10:25:53;;;;;;;2.42;0.40;;;;;;;;;;6282899;22;20031;-88
2023/06/04 10:28:20;;;;;;;1.73;0.40;;;;;;;;;;6283569;22;20015;-88
2023/06/04 10:30:50;;;;;;;3.67;0.30;;;;;;;;;;6282396;22;20350;-89
2023/06/04 10:33:16;;;;;;;0.98;0.20;;;;;;;;;;6308285;22;20073;-88
2023/06/04 10:35:43;;;;;;;1.23;0.30;;;;;;;;;;6282638;22;20015;-87
2023/06/04 10:38:10;;;;;;;1.27;0.30;;;;;;;;;;6284097;22;20019;-89
2023/06/04 10:40:37;;;;;;;1.80;0.30;;;;;;;;;;6284641;22;20015;-88
2023/06/04 10:43:07;;;;;;;2.17;0.32;;;;;;;;;;6305271;22;20046;-88
2023/06/04 10:45:35;;;;;;;2.03;0.50;;;;;;;;;;6331076;22;20003;-88
2023/06/04 10:48:05;;;;;;;1.85;0.20;;;;;;;;;;6284795;22;20054;-88
2023/06/04 10:50:36;;;;;;;2.22;0.30;;;;;;;;;;6284822;22;20022;-89
2023/06/04 10:53:05;;;;;;;2.78;0.30;;;;;;;;;;6283970;22;20019;-89
2023/06/04 10:55:34;;;;;;;1.63;0.20;;;;;;;;;;6282388;22;20046;-89
2023/06/04 10:58:02;;;;;;;2.40;0.40;;;;;;;;;;6308001;22;20023;-89
2023/06/04 11:00:38;;;;;;;2.35;0.30;;;;;;;;;;6307114;22;20015;-90
2023/06/04 11:03:06;;;;;;;2.15;0.30;;;;;;;;;;6282538;22;20022;-89
2023/06/04 11:05:40;;;;;;;1.05;0.30;;;;;;;;;;6281503;22;20341;-88
2023/06/04 11:08:06;;;;;;;4.07;0.30;;;;;;;;;;6307302;22;20345;-89
2023/06/04 11:10:35;;;;;;;1.15;0.22;;;;;;;;;;6281285;22;20019;-88
2023/06/04 11:13:03;;;;;;;2.47;0.40;;;;;;;;;;6281615;22;20019;-89
2023/06/04 11:15:42;;;;;;;1.00;0.20;;;;;;;;;;6281133;22;20065;-90
2023/06/04 11:18:20;;;;;;;1.70;0.20;;;;;;;;;;6282956;22;20050;-89
2023/06/04 11:20:50;;;;;;;3.03;0.30;;;;;;;;;;6282189;22;20089;-89
2023/06/04 11:23:16;;;;;;;2.55;0.30;;;;;;;;;;6281597;22;20101;-89
2023/06/04 11:25:44;;;;;;;1.60;0.30;;;;;;;;;;6280989;22;20476;-90
2023/06/04 11:28:21;;;;;;;2.38;0.52;;;;;;;;;;6307599;22;20011;-90
2023/06/04 11:31:03;;;;;;;1.58;0.30;;;;;;;;;;6281494;22;20023;-89
2023/06/04 11:33:47;;;;;;;1.25;0.20;;;;;;;;;;6282441;22;20022;-90
2023/06/04 11:36:29;;;;;;;1.30;0.30;;;;;;;;;;6281529;22;20015;-91
2023/06/04 11:39:02;;;;;;;2.20;0.30;;;;;;;;;;6281558;22;20019;-90
2023/06/04 11:41:30;;;;;;;2.17;0.38;;;;;;;;;;6281140;22;20095;-90
2023/06/04 11:43:57;;;;;;;1.17;0.30;;;;;;;;;;6282511;22;20015;-90
2023/06/04 11:46:23;;;;;;;1.52;0.22;;;;;;;;;;6281916;22;20011;-90
2023/06/04 11:48:55;;;;;;;2.42;0.35;;;;;;;;;;6281799;22;20059;-90
2023/06/04 11:51:21;;;;;;;1.27;0.40;;;;;;;;;;6281696;22;20027;-92
2023/06/04 11:53:48;;;;;;;1.55;0.30;;;;;;;;;;6281500;22;20015;-91
2023/06/04 11:56:15;;;;;;;1.85;0.20;;;;;;;;;;6281334;22;20151;-89
2023/06/04 11:58:46;;;;;;;1.73;0.30;;;;;;;;;;6281460;22;20050;-89
2023/06/04 12:01:17;;;;;;;1.27;0.30;;;;;;;;;;6308827;22;20019;-92
2023/06/04 12:03:43;;;;;;;3.60;0.40;;;;;;;;;;6281374;22;20015;-91
2023/06/04 12:06:14;;;;;;;1.98;0.50;;;;;;;;;;6281662;22;20019;-91
2023/06/04 12:08:47;;;;;;;2.20;0.55;;;;;;;;;;6307387;22;20015;-93
2023/06/04 12:11:35;;;;;;;2.20;0.30;;;;;;;;;;6281682;22;20334;-91
2023/06/04 12:14:08;;;;;;;2.17;0.30;;;;;;;;;;6281213;22;20017;-91
2023/06/04 12:16:34;;;;;;;2.33;0.40;;;;;;;;;;6281733;22;20019;-92
2023/06/04 12:19:09;;;;;;;3.90;0.30;;;;;;;;;;6307984;22;20326;-93
2023/06/04 12:21:36;;;;;;;1.30;0.32;;;;;;;;;;6307779;22;20015;-92
2023/06/04 12:24:14;;;;;;;2.28;0.40;;;;;;;;;;6307083;22;20019;-93
2023/06/04 12:26:49;;;;;;;2.10;0.30;;;;;;;;;;6307377;22;20019;-94
2023/06/04 12:29:16;;;;;;;1.98;0.30;;;;;;;;;;6281514;22;20015;-92
2023/06/04 12:31:43;;;;;;;2.60;0.30;;;;;;;;;;6282211;22;20030;-93
2023/06/04 12:34:09;;;;;;;1.20;0.30;;;;;;;;;;6281811;22;20011;-94
2023/06/04 12:36:35;;;;;;;2.75;0.40;;;;;;;;;;6281989;22;20437;-93
2023/06/04 12:39:07;;;;;;;1.25;0.52;;;;;;;;;;6281774;22;20023;-92
2023/06/04 12:41:35;;;;;;;1.08;0.30;;;;;;;;;;6307402;22;20015;-94
2023/06/04 12:44:11;;;;;;;0.90;0.40;;;;;;;;;;6290355;22;20075;-93
2023/06/04 12:46:37;;;;;;;1.42;0.40;;;;;;;;;;6283790;22;20454;-96
2023/06/04 12:49:03;;;;;;;2.50;0.30;;;;;;;;;;6283108;22;20019;-94
2023/06/04 12:51:29;;;;;;;1.13;0.30;;;;;;;;;;6308667;22;20086;-95
2023/06/04 12:53:58;;;;;;;1.15;0.30;;;;;;;;;;6282070;22;20019;-93
2023/06/04 12:56:25;;;;;;;1.48;0.30;;;;;;;;;;6282823;22;20089;-93
2023/06/04 12:58:51;;;;;;;1.00;0.30;;;;;;;;;;6308183;22;20011;-95
2023/06/04 13:01:20;;;;;;;0.63;0.30;;;;;;;;;;6283298;22;20020;-93
2023/06/04 13:03:46;;;;;;;1.15;0.30;;;;;;;;;;6282105;22;20090;-95
2023/06/04 13:06:16;;;;;;;2.28;0.20;;;;;;;;;;6281510;22;20016;-94
2023/06/04 13:08:43;;;;;;;3.30;0.50;;;;;;;;;;6282591;22;20021;-93
2023/06/04 13:11:12;;;;;;;0.90;0.30;;;;;;;;;;6283667;22;20022;-95
2023/06/04 13:13:38;;;;;;;2.42;0.30;;;;;;;;;;6311134;22;20065;-94
2023/06/04 13:16:07;;;;;;;1.08;0.30;;;;;;;;;;6285905;22;20037;-93
2023/06/04 13:18:42;;;;;;;2.05;0.30;;;;;;;;;;6310220;22;20015;-93
2023/06/04 13:21:09;;;;;;;0.80;0.20;;;;;;;;;;6310432;22;20460;-95
2023/06/04 13:23:35;;;;;;;2.22;0.40;;;;;;;;;;6283874;22;20096;-91
2023/06/04 13:26:01;;;;;;;1.10;0.30;;;;;;;;;;6283068;22;20389;-96
2023/06/04 13:28:30;;;;;;;0.68;0.30;;;;;;;;;;6309948;22;20337;-95
2023/06/04 13:30:56;;;;;;;1.85;0.30;;;;;;;;;;6284623;22;20019;-94
2023/06/04 13:33:22;;;;;;;1.77;0.30;;;;;;;;;;6283682;22;20049;-92
2023/06/04 13:35:50;;;;;;;2.10;0.30;;;;;;;;;;6284024;22;20019;-92
2023/06/04 13:38:18;;;;;;;1.50;0.20;;;;;;;;;;6309671;22;20018;-95
2023/06/04 13:40:47;;;;;;;1.88;0.22;;;;;;;;;;6284783;22;20022;-94
2023/06/04 13:43:16;;;;;;;4.25;0.32;;;;;;;;;;6310041;22;20037;-94
2023/06/04 13:45:44;;;;;;;2.05;0.30;;;;;;;;;;6284590;22;20015;-92
2023/06/04 13:48:13;;;;;;;1.48;0.20;;;;;;;;;;6283894;22;20011;-94
2023/06/04 13:50:42;;;;;;;0.88;0.30;;;;;;;;;;6283806;22;20083;-93
2023/06/04 13:53:09;;;;;;;1.45;0.20;;;;;;;;;;6283705;22;20094;-96
2023/06/04 13:55:35;;;;;;;0.68;0.30;;;;;;;;;;6309497;22;20019;-95
2023/06/04 13:58:03;;;;;;;0.93;0.30;;;;;;;;;;6284815;22;20457;-96
2023/06/04 14:00:30;;;;;;;1.65;0.30;;;;;;;;;;6284397;22;20441;-96
2023/06/04 14:03:04;;;;;;;0.88;0.25;;;;;;;;;;6284997;22;20019;-96
2023/06/04 14:05:33;;;;;;;1.35;0.30;;;;;;;;;;6284684;22;20015;-94
2023/06/04 14:07:59;;;;;;;1.48;0.30;;;;;;;;;;6285197;22;20081;-94
2023/06/04 14:10:32;;;;;;;0.88;0.30;;;;;;;;;;6285221;22;20019;-95
2023/06/04 14:13:01;;;;;;;2.45;0.50;;;;;;;;;;6285460;22;20020;-95
2023/06/04 14:15:29;;;;;;;3.05;0.30;;;;;;;;;;6284175;22;20113;-96
2023/06/04 14:17:56;;;;;;;1.30;0.30;;;;;;;;;;6310978;22;20449;-94
2023/06/04 14:20:27;;;;;;;0.70;0.22;;;;;;;;;;6285667;22;20023;-92
2023/06/04 14:22:53;;;;;;;0.80;0.30;;;;;;;;;;6284504;22;20022;-96
2023/06/04 14:25:23;;;;;;;0.80;0.30;;;;;;;;;;6283686;22;20093;-95
2023/06/04 14:27:49;;;;;;;0.80;0.30;;;;;;;;;;6283519;22;20086;-94
2023/06/04 14:30:21;;;;;;;0.60;0.25;;;;;;;;;;6285137;22;20026;-92
2023/06/04 14:33:07;;;;;;;0.70;0.30;;;;;;;;;;6285853;22;20026;-95
2023/06/04 14:35:44;;;;;;;0.40;0.20;;;;;;;;;;6295466;22;20017;-94
2023/06/04 14:38:15;;;;;;;0.90;0.22;;;;;;;;;;6284765;22;20011;-95
2023/06/04 14:40:45;;;;;;;0.70;0.22;;;;;;;;;;6310994;22;20023;-95
2023/06/04 14:43:14;;;;;;;2.35;0.38;;;;;;;;;;6310321;22;20031;-95
2023/06/04 14:45:43;;;;;;;2.30;0.30;;;;;;;;;;6283810;22;20022;-95
2023/06/04 14:48:09;;;;;;;0.95;0.30;;;;;;;;;;6283500;22;20015;-94